createdAt,value
2023-04-26T00:03:19.456Z,21.7
2023-04-26T00:13:20.914Z,22
2023-04-26T00:23:20.802Z,23.4
2023-04-26T00:33:22.612Z,21.9
2023-04-26T00:43:23.845Z,21.6
2023-04-26T00:53:24.255Z,23.5
2023-04-26T01:03:25.649Z,21.8
2023-04-26T01:13:25.494Z,21.3
2023-04-26T01:23:25.934Z,21.4
2023-04-26T01:33:28.656Z,21.1
2023-04-26T01:43:25.282Z,21.3
2023-04-26T01:53:26.136Z,21.3
2023-04-26T02:03:26.505Z,21.3
2023-04-26T02:13:26.448Z,21.1
2023-04-26T02:23:25.956Z,21.1
2023-04-26T02:33:26.317Z,21.4
2023-04-26T02:43:26.722Z,22.8
2023-04-26T02:53:27.187Z,21.3
2023-04-26T03:03:09.371Z,22.9
2023-04-26T03:13:09.558Z,21.3
2023-04-26T03:23:09.451Z,21
2023-04-26T03:33:08.889Z,21.2
2023-04-26T03:43:08.896Z,20.9
2023-04-26T03:53:08.753Z,21.2
2023-04-26T04:03:12.545Z,23.6
2023-04-26T04:13:17.553Z,23.1
2023-04-26T04:23:20.071Z,21.5
2023-04-26T04:33:21.170Z,21.4
2023-04-26T04:43:29.473Z,25.6
2023-04-26T04:53:35.867Z,22.8
2023-04-26T05:03:40.513Z,24.3
2023-04-26T05:13:52.334Z,26.8
2023-04-26T05:23:58.771Z,25.3
2023-04-26T05:34:12.506Z,25.3
2023-04-26T05:44:26.571Z,27.2
2023-04-26T05:54:43.045Z,27.6
2023-04-26T06:04:57.463Z,27.2
2023-04-26T06:15:13.642Z,27.1
2023-04-26T06:25:28.593Z,21.8
2023-04-26T06:35:39.364Z,27.9
2023-04-26T06:45:54.748Z,28.2
2023-04-26T06:56:10.587Z,28.2
2023-04-26T07:06:26.651Z,28.6
2023-04-26T07:16:44.638Z,28.9
2023-04-26T07:27:02.046Z,30.1
2023-04-26T07:37:17.273Z,28.7
2023-04-26T07:47:36.171Z,23.4
2023-04-26T07:57:53.841Z,28.9
2023-04-26T08:08:13.644Z,29
2023-04-26T08:18:29.037Z,24
2023-04-26T08:28:41.653Z,29.2
2023-04-26T08:38:54.597Z,29.4
2023-04-26T08:49:06.884Z,29.4
2023-04-26T08:59:19.099Z,29.1
2023-04-26T09:03:13.548Z,30.1
2023-04-26T09:13:25.807Z,29.3
2023-04-26T09:23:37.283Z,29
2023-04-26T09:33:50.027Z,29.3
2023-04-26T09:44:03.010Z,29.4
2023-04-26T09:54:16.236Z,25.7
2023-04-26T10:04:29.416Z,29.9
2023-04-26T10:14:43.649Z,29.4
2023-04-26T10:24:57.117Z,29
2023-04-26T10:35:10.198Z,28.9
2023-04-26T10:45:23.076Z,28.8
2023-04-26T10:55:36.295Z,29.1
2023-04-26T11:05:48.227Z,22.8
2023-04-26T11:16:00.085Z,28.9
2023-04-26T11:26:11.931Z,29.1
2023-04-26T11:36:22.524Z,25.6
2023-04-26T11:46:30.609Z,28.8
2023-04-26T11:56:42.686Z,29.1
2023-04-26T12:06:54.243Z,29.1
2023-04-26T12:17:03.532Z,27.9
2023-04-26T12:27:10.982Z,28.3
2023-04-26T12:37:17.993Z,27.7
2023-04-26T12:47:25.207Z,28.1
2023-04-26T12:57:33.891Z,28.8
2023-04-26T13:07:40.352Z,26.9
2023-04-26T13:17:45.019Z,26.7
2023-04-26T13:27:48.241Z,25.1
2023-04-26T13:37:49.756Z,26.6
2023-04-26T13:47:50.921Z,24.9
2023-04-26T13:57:53.380Z,26.3
2023-04-26T14:07:55.923Z,26
2023-04-26T14:17:57.990Z,26.4
2023-04-26T14:27:58.497Z,24.3
2023-04-26T14:37:58.801Z,23.9
2023-04-26T14:48:00.065Z,23.9
2023-04-26T14:58:00.749Z,23.7
2023-04-26T15:03:06.927Z,23.8
2023-04-26T15:13:08.459Z,25.6
2023-04-26T15:23:08.946Z,23.9
2023-04-26T15:33:09.181Z,23.8
2023-04-26T15:43:09.551Z,23.6
2023-04-26T15:53:09.549Z,23.6
2023-04-26T16:03:10.327Z,23.4
2023-04-26T16:13:12.534Z,23.8
2023-04-26T16:23:15.366Z,25.3
2023-04-26T16:33:16.602Z,23.3
2023-04-26T16:43:18.051Z,23.3
2023-04-26T16:53:20.286Z,24.7
2023-04-26T17:03:22.451Z,23.3
2023-04-26T17:13:21.887Z,23.3
2023-04-26T17:23:22.066Z,22.9
2023-04-26T17:33:22.559Z,23.3
2023-04-26T17:43:23.094Z,24.9
2023-04-26T17:53:23.759Z,23.1
2023-04-26T18:03:24.427Z,22.7
2023-04-26T18:13:25.624Z,24.4
2023-04-26T18:23:26.196Z,22.9
2023-04-26T18:33:25.854Z,22.6
2023-04-26T18:43:27.231Z,23.1
2023-04-26T18:53:27.429Z,22.4
2023-04-26T19:03:28.054Z,24
2023-04-26T19:13:28.080Z,23
2023-04-26T19:23:28.349Z,22.6
2023-04-26T19:33:28.807Z,23
2023-04-26T19:43:29.730Z,22.7
2023-04-26T19:53:31.308Z,22.6
2023-04-26T20:03:31.175Z,22.4
2023-04-26T20:13:31.020Z,22.4
2023-04-26T20:23:32.345Z,24.3
2023-04-26T20:33:33.443Z,22.5
2023-04-26T20:43:34.349Z,24.1
2023-04-26T20:53:34.881Z,24
2023-04-26T21:03:06.723Z,22.3
2023-04-26T21:13:07.250Z,22.4
2023-04-26T21:23:08.134Z,23.9
2023-04-26T21:33:07.491Z,22.3
2023-04-26T21:43:07.505Z,22.2
2023-04-26T21:53:07.934Z,23.8
2023-04-26T22:03:08.278Z,22.1
2023-04-26T22:13:10.024Z,22
2023-04-26T22:23:10.904Z,22.3
2023-04-26T22:33:13.036Z,22.1
2023-04-26T22:43:15.458Z,22.2
2023-04-26T22:53:15.533Z,22
2023-04-26T23:03:16.092Z,21.6
2023-04-26T23:13:16.155Z,21.9
2023-04-26T23:23:16.189Z,22.1
2023-04-26T23:33:16.257Z,21.9
2023-04-26T23:43:15.996Z,21.9
2023-04-26T23:53:15.567Z,21.6
